createdAt,value
2022-09-26T00:00:07.381Z,5.68
2022-09-26T00:02:38.471Z,5.45
2022-09-26T00:05:05.180Z,5.90
2022-09-26T00:07:31.554Z,6.57
2022-09-26T00:09:57.927Z,6.40
2022-09-26T00:12:24.345Z,5.38
2022-09-26T00:14:50.745Z,5.55
2022-09-26T00:17:17.060Z,7.65
2022-09-26T00:19:43.543Z,7.22
2022-09-26T00:22:09.932Z,5.93
2022-09-26T00:24:36.328Z,5.43
2022-09-26T00:27:02.750Z,6.63
2022-09-26T00:29:29.165Z,5.65
2022-09-26T00:31:55.711Z,7.25
2022-09-26T00:34:22.122Z,6.07
2022-09-26T00:36:48.805Z,5.78
2022-09-26T00:39:15.630Z,10.05
2022-09-26T00:41:42.273Z,8.65
2022-09-26T00:44:27.625Z,6.18
2022-09-26T00:46:54.133Z,6.10
2022-09-26T00:49:28.992Z,5.65
2022-09-26T00:52:04.610Z,8.07
2022-09-26T00:54:31.613Z,6.72
2022-09-26T00:57:04.062Z,11.50
2022-09-26T00:59:35.484Z,4.93
2022-09-26T01:02:02.620Z,7.13
2022-09-26T01:04:29.982Z,6.22
2022-09-26T01:06:57.762Z,8.13
2022-09-26T01:09:24.717Z,4.63
2022-09-26T01:11:51.317Z,5.60
2022-09-26T01:14:19.713Z,8.32
2022-09-26T01:16:48.062Z,7.15
2022-09-26T01:19:25.210Z,6.68
2022-09-26T01:21:54.602Z,5.10
2022-09-26T01:24:39.854Z,6.50
2022-09-26T01:27:15.575Z,5.93
2022-09-26T01:30:01.376Z,5.43
2022-09-26T01:32:50.589Z,8.27
2022-09-26T01:35:17.567Z,7.10
2022-09-26T01:38:03.055Z,4.90
2022-09-26T01:40:29.510Z,5.30
2022-09-26T01:43:05.712Z,7.32
2022-09-26T01:45:43.785Z,5.18
2022-09-26T01:48:16.836Z,11.02
2022-09-26T01:50:50.997Z,4.93
2022-09-26T01:53:29.850Z,6.55
2022-09-26T01:56:01.102Z,8.60
2022-09-26T01:58:33.273Z,9.20
2022-09-26T02:01:02.831Z,5.38
2022-09-26T02:03:31.669Z,6.15
2022-09-26T02:05:59.654Z,7.22
2022-09-26T02:08:29.671Z,7.55
2022-09-26T02:11:02.136Z,10.90
2022-09-26T02:13:31.239Z,4.82
2022-09-26T02:16:02.941Z,6.93
2022-09-26T02:18:33.319Z,7.53
2022-09-26T02:21:06.465Z,6.35
2022-09-26T02:23:32.914Z,6.85
2022-09-26T02:25:59.998Z,5.80
2022-09-26T02:28:26.426Z,7.75
2022-09-26T02:30:54.794Z,8.73
2022-09-26T02:33:22.199Z,4.63
2022-09-26T02:35:54.737Z,5.95
2022-09-26T02:38:26.451Z,7.30
2022-09-26T02:41:13.685Z,7.78
2022-09-26T02:43:56.633Z,6.43
2022-09-26T02:46:39.549Z,4.88
2022-09-26T02:49:15.392Z,5.10
2022-09-26T02:51:45.863Z,3.83
2022-09-26T02:54:23.365Z,4.82
2022-09-26T02:56:59.456Z,7.18
2022-09-26T02:59:52.381Z,8.57
2022-09-26T03:02:27.341Z,4.40
2022-09-26T03:05:16.584Z,4.90
2022-09-26T03:10:09.829Z,5.57
2022-09-26T03:12:37.706Z,6.30
2022-09-26T03:15:05.402Z,3.85
2022-09-26T03:17:34.212Z,5.28
2022-09-26T03:20:11.701Z,4.65
2022-09-26T03:22:39.654Z,4.55
2022-09-26T03:25:09.323Z,4.22
2022-09-26T03:27:38.873Z,7.75
2022-09-26T03:30:05.833Z,5.72
2022-09-26T03:32:38.344Z,6.22
2022-09-26T03:35:05.159Z,4.20
2022-09-26T03:37:33.960Z,6.18
2022-09-26T03:40:02.333Z,6.30
2022-09-26T03:42:48.829Z,4.25
2022-09-26T03:45:15.364Z,7.85
2022-09-26T03:47:58.404Z,5.03
2022-09-26T03:50:25.359Z,4.63
2022-09-26T03:52:52.431Z,9.32
2022-09-26T03:55:20.244Z,8.32
2022-09-26T03:57:46.825Z,7.43
2022-09-26T04:00:27.851Z,9.73
2022-09-26T04:02:54.225Z,7.03
2022-09-26T04:05:42.538Z,6.40
2022-09-26T04:08:09.205Z,7.00
2022-09-26T04:10:37.193Z,3.47
2022-09-26T04:13:05.352Z,5.95
2022-09-26T04:15:31.819Z,4.75
2022-09-26T04:18:08.296Z,4.90
2022-09-26T04:20:34.757Z,4.53
2022-09-26T04:23:01.242Z,5.07
2022-09-26T04:25:27.825Z,7.28
2022-09-26T04:27:55.042Z,5.63
2022-09-26T04:30:22.208Z,6.78
2022-09-26T04:32:54.907Z,3.83
2022-09-26T04:35:33.234Z,4.28
2022-09-26T04:37:59.742Z,6.95
2022-09-26T04:40:26.872Z,4.57
2022-09-26T04:43:03.963Z,4.53
2022-09-26T04:45:30.331Z,4.78
2022-09-26T04:47:56.869Z,7.78
2022-09-26T04:50:26.287Z,3.45
2022-09-26T04:53:06.285Z,5.05
2022-09-26T04:55:36.025Z,7.40
2022-09-26T04:58:02.498Z,4.95
2022-09-26T05:00:30.108Z,3.97
2022-09-26T05:03:02.010Z,4.22
2022-09-26T05:05:33.034Z,7.43
2022-09-26T05:07:59.433Z,6.90
2022-09-26T05:10:26.399Z,3.97
2022-09-26T05:12:58.782Z,6.03
2022-09-26T05:15:25.292Z,7.50
2022-09-26T05:17:59.388Z,4.10
2022-09-26T05:20:31.545Z,5.63
2022-09-26T05:23:02.302Z,4.03
2022-09-26T05:25:50.345Z,5.68
2022-09-26T05:28:16.694Z,3.80
2022-09-26T05:30:43.372Z,2.60
2022-09-26T05:33:13.026Z,5.75
2022-09-26T05:35:39.920Z,7.32
2022-09-26T05:38:07.316Z,4.55
2022-09-26T05:40:56.780Z,6.40
2022-09-26T05:43:24.821Z,8.15
2022-09-26T05:45:55.533Z,5.13
2022-09-26T05:48:25.419Z,6.45
2022-09-26T05:50:52.090Z,6.03
2022-09-26T05:53:19.344Z,5.03
2022-09-26T05:55:48.991Z,6.70
2022-09-26T05:58:35.161Z,6.43
2022-09-26T06:01:17.815Z,8.13
2022-09-26T06:03:46.597Z,5.53
2022-09-26T06:06:21.432Z,8.23
2022-09-26T06:11:46.648Z,6.35
2022-09-26T06:14:12.995Z,7.95
2022-09-26T06:16:40.139Z,6.35
2022-09-26T06:19:06.914Z,7.93
2022-09-26T06:21:34.895Z,6.88
2022-09-26T06:24:08.486Z,7.95
2022-09-26T06:26:35.741Z,4.78
2022-09-26T06:29:02.670Z,8.60
2022-09-26T06:31:33.631Z,8.25
2022-09-26T06:34:08.562Z,7.43
2022-09-26T06:36:59.051Z,6.50
2022-09-26T06:39:35.466Z,10.55
2022-09-26T06:42:03.426Z,5.38
2022-09-26T06:47:20.046Z,11.07
2022-09-26T06:49:49.033Z,8.50
2022-09-26T06:52:24.139Z,5.10
2022-09-26T06:54:50.577Z,8.15
2022-09-26T06:57:17.628Z,8.20
2022-09-26T06:59:44.438Z,8.95
2022-09-26T07:02:27.020Z,8.55
2022-09-26T07:05:02.536Z,9.02
2022-09-26T07:07:39.578Z,4.65
2022-09-26T07:10:07.870Z,8.75
2022-09-26T07:12:40.163Z,4.95
2022-09-26T07:15:07.299Z,8.90
2022-09-26T07:17:33.631Z,6.32
2022-09-26T07:20:10.553Z,6.65
2022-09-26T07:23:10.517Z,8.20
2022-09-26T07:25:41.577Z,7.40
2022-09-26T07:28:09.381Z,6.18
2022-09-26T07:30:57.146Z,8.55
2022-09-26T07:33:44.900Z,4.90
2022-09-26T07:36:11.573Z,6.47
2022-09-26T07:38:38.727Z,6.18
2022-09-26T07:41:05.975Z,6.00
2022-09-26T07:44:29.946Z,6.18
2022-09-26T07:46:39.609Z,5.82
2022-09-26T07:49:25.044Z,5.60
2022-09-26T07:52:18.312Z,5.63
2022-09-26T07:54:56.716Z,4.15
2022-09-26T07:57:49.374Z,4.68
2022-09-26T08:00:24.621Z,2.85
2022-09-26T08:03:05.085Z,4.68
2022-09-26T08:05:33.908Z,5.25
2022-09-26T08:08:00.288Z,5.13
2022-09-26T08:10:45.923Z,3.35
2022-09-26T08:13:26.056Z,5.40
2022-09-26T08:16:22.863Z,4.00
2022-09-26T08:18:52.240Z,4.80
2022-09-26T08:21:19.149Z,3.42
2022-09-26T08:23:46.819Z,8.10
2022-09-26T08:26:31.375Z,4.65
2022-09-26T08:29:03.582Z,6.07
2022-09-26T08:31:30.046Z,4.35
2022-09-26T08:33:58.051Z,7.93
2022-09-26T08:36:24.410Z,5.57
2022-09-26T08:39:10.801Z,4.82
2022-09-26T08:42:11.209Z,7.00
2022-09-26T08:44:52.984Z,3.60
2022-09-26T08:47:45.008Z,5.25
2022-09-26T08:50:37.376Z,5.78
2022-09-26T08:53:12.501Z,10.65
2022-09-26T08:55:47.797Z,8.48
2022-09-26T08:58:27.945Z,6.93
2022-09-26T09:01:00.619Z,7.15
2022-09-26T09:03:38.813Z,5.82
2022-09-26T09:06:11.342Z,5.35
2022-09-26T09:08:42.274Z,5.78
2022-09-26T09:11:36.546Z,7.53
2022-09-26T09:14:15.190Z,8.13
2022-09-26T09:17:13.921Z,3.70
2022-09-26T09:20:10.355Z,5.80
2022-09-26T09:22:55.287Z,5.00
2022-09-26T09:25:35.630Z,5.75
2022-09-26T09:28:27.913Z,5.63
2022-09-26T09:31:09.284Z,4.40
2022-09-26T09:33:58.686Z,4.28
2022-09-26T09:36:49.990Z,7.68
2022-09-26T09:39:25.412Z,5.68
2022-09-26T09:42:12.103Z,5.70
2022-09-26T09:44:46.433Z,7.18
2022-09-26T09:47:14.853Z,6.97
2022-09-26T09:49:42.204Z,5.85
2022-09-26T09:52:27.359Z,6.43
2022-09-26T09:54:55.528Z,2.85
2022-09-26T09:57:57.440Z,6.65
2022-09-26T10:00:24.450Z,8.95
2022-09-26T10:03:24.893Z,7.18
2022-09-26T10:05:55.429Z,9.80
2022-09-26T10:08:33.210Z,5.50
2022-09-26T10:11:30.793Z,8.95
2022-09-26T10:14:03.099Z,4.95
2022-09-26T10:17:08.580Z,3.85
2022-09-26T10:19:40.092Z,4.53
2022-09-26T10:22:19.045Z,5.90
2022-09-26T10:24:46.418Z,6.18
2022-09-26T10:27:35.256Z,7.35
2022-09-26T10:30:03.889Z,6.55
2022-09-26T10:32:30.384Z,6.85
2022-09-26T10:35:19.673Z,4.72
2022-09-26T10:37:48.461Z,4.75
2022-09-26T10:40:40.412Z,5.85
2022-09-26T10:43:22.229Z,7.95
2022-09-26T10:45:54.841Z,7.32
2022-09-26T10:48:46.913Z,9.45
2022-09-26T10:51:28.935Z,7.72
2022-09-26T10:54:04.220Z,7.60
2022-09-26T10:56:31.877Z,6.00
2022-09-26T10:59:05.890Z,6.70
2022-09-26T11:01:32.992Z,6.90
2022-09-26T11:04:11.404Z,4.90
2022-09-26T11:07:01.880Z,5.75
2022-09-26T11:09:35.493Z,6.03
2022-09-26T11:12:39.496Z,4.93
2022-09-26T11:15:11.608Z,5.47
2022-09-26T11:17:47.090Z,7.40
2022-09-26T11:20:27.569Z,9.30
2022-09-26T11:23:00.477Z,5.43
2022-09-26T11:25:30.256Z,6.50
2022-09-26T11:28:07.002Z,7.20
2022-09-26T11:30:52.474Z,4.88
2022-09-26T11:33:21.196Z,7.22
2022-09-26T11:36:24.857Z,9.95
2022-09-26T11:38:56.023Z,3.95
2022-09-26T11:41:38.127Z,6.38
2022-09-26T11:44:25.742Z,6.22
2022-09-26T11:47:15.122Z,10.00
2022-09-26T11:50:04.607Z,8.45
2022-09-26T11:53:05.533Z,7.38
2022-09-26T11:55:51.166Z,7.03
2022-09-26T11:58:28.030Z,5.35
2022-09-26T12:00:59.276Z,5.03
2022-09-26T12:03:43.398Z,7.43
2022-09-26T12:06:20.920Z,4.80
2022-09-26T12:08:57.681Z,7.93
2022-09-26T12:11:42.965Z,5.03
2022-09-26T12:14:28.068Z,8.45
2022-09-26T12:17:12.501Z,5.72
2022-09-26T12:19:59.697Z,7.03
2022-09-26T12:22:37.076Z,4.03
2022-09-26T12:25:07.761Z,6.65
2022-09-26T12:27:39.325Z,4.30
2022-09-26T12:30:10.069Z,3.03
2022-09-26T12:32:42.784Z,3.20
2022-09-26T12:37:43.400Z,5.25
2022-09-26T12:40:12.811Z,4.35
2022-09-26T12:42:39.445Z,4.60
2022-09-26T12:45:16.607Z,4.15
2022-09-26T12:48:01.706Z,5.07
2022-09-26T12:50:47.520Z,4.97
2022-09-26T12:53:13.814Z,6.35
2022-09-26T12:55:47.032Z,6.55
2022-09-26T12:58:13.339Z,3.67
2022-09-26T13:00:42.944Z,3.50
2022-09-26T13:03:12.191Z,5.13
2022-09-26T13:05:57.517Z,4.57
2022-09-26T13:08:57.267Z,5.43
2022-09-26T13:11:42.551Z,4.20
2022-09-26T13:14:14.754Z,3.85
2022-09-26T13:16:46.917Z,5.00
2022-09-26T13:19:27.758Z,3.72
2022-09-26T13:22:05.724Z,4.38
2022-09-26T13:24:34.856Z,3.42
2022-09-26T13:27:12.205Z,5.13
2022-09-26T13:29:40.845Z,3.70
2022-09-26T13:32:25.594Z,5.28
2022-09-26T13:35:00.831Z,5.18
2022-09-26T13:37:28.834Z,6.15
2022-09-26T13:40:03.844Z,4.00
2022-09-26T13:42:39.590Z,3.75
2022-09-26T13:45:20.509Z,3.85
2022-09-26T13:47:55.048Z,2.88
2022-09-26T13:50:27.230Z,3.17
2022-09-26T13:53:06.703Z,2.65
2022-09-26T13:55:33.533Z,3.72
2022-09-26T13:58:07.302Z,3.47
2022-09-26T14:00:40.725Z,2.60
2022-09-26T14:03:10.054Z,7.05
2022-09-26T14:05:43.502Z,7.63
2022-09-26T14:08:37.756Z,7.35
2022-09-26T14:11:08.351Z,4.07
2022-09-26T14:13:36.169Z,5.82
2022-09-26T14:16:04.879Z,6.10
2022-09-26T14:18:32.430Z,3.67
2022-09-26T14:21:02.486Z,3.35
2022-09-26T14:23:40.217Z,3.28
2022-09-26T14:26:10.245Z,5.32
2022-09-26T14:28:37.018Z,3.53
2022-09-26T14:31:13.774Z,6.32
2022-09-26T14:33:40.569Z,3.40
2022-09-26T14:36:17.218Z,2.97
2022-09-26T14:38:46.130Z,3.83
2022-09-26T14:41:19.980Z,1.80
2022-09-26T14:43:47.785Z,2.45
2022-09-26T14:46:17.079Z,2.70
2022-09-26T14:48:44.264Z,2.78
2022-09-26T14:51:18.509Z,4.72
2022-09-26T14:53:48.129Z,2.53
2022-09-26T14:56:37.218Z,2.10
2022-09-26T14:59:18.974Z,4.95
2022-09-26T15:01:45.925Z,3.13
2022-09-26T15:04:16.830Z,2.22
2022-09-26T15:06:44.546Z,1.75
2022-09-26T15:09:12.028Z,1.98
2022-09-26T15:11:46.134Z,2.97
2022-09-26T15:14:32.310Z,2.70
2022-09-26T15:17:00.620Z,2.85
2022-09-26T15:19:39.642Z,2.80
2022-09-26T15:22:18.957Z,2.10
2022-09-26T15:24:45.289Z,3.13
2022-09-26T15:27:16.439Z,2.33
2022-09-26T15:29:46.822Z,2.65
2022-09-26T15:32:19.495Z,3.60
2022-09-26T15:37:21.157Z,2.70
2022-09-26T15:39:47.625Z,2.30
2022-09-26T15:42:46.368Z,3.92
2022-09-26T15:45:15.515Z,2.13
2022-09-26T15:47:42.845Z,4.65
2022-09-26T15:50:23.348Z,8.48
2022-09-26T15:52:55.961Z,4.82
2022-09-26T15:57:51.337Z,9.65
2022-09-26T16:00:17.869Z,6.13
2022-09-26T16:02:44.619Z,3.63
2022-09-26T16:05:12.983Z,1.95
2022-09-26T16:07:41.205Z,2.28
2022-09-26T16:10:21.170Z,1.85
2022-09-26T16:12:47.649Z,2.35
2022-09-26T16:15:18.756Z,1.65
2022-09-26T16:17:53.380Z,2.88
2022-09-26T16:20:20.741Z,1.75
2022-09-26T16:22:51.590Z,4.75
2022-09-26T16:25:22.793Z,1.52
2022-09-26T16:27:50.930Z,2.45
2022-09-26T16:30:27.135Z,1.92
2022-09-26T16:33:12.894Z,1.83
2022-09-26T16:35:47.206Z,3.00
2022-09-26T16:38:27.854Z,2.95
2022-09-26T16:40:55.733Z,2.47
2022-09-26T16:43:27.141Z,2.15
2022-09-26T16:46:02.226Z,2.30
2022-09-26T16:48:42.057Z,4.22
2022-09-26T16:51:15.981Z,2.03
2022-09-26T16:53:44.294Z,4.43
2022-09-26T16:56:15.249Z,2.60
2022-09-26T16:58:44.515Z,5.18
2022-09-26T17:01:29.766Z,5.82
2022-09-26T17:03:56.901Z,2.58
2022-09-26T17:06:23.217Z,2.30
2022-09-26T17:08:49.650Z,3.97
2022-09-26T17:11:16.294Z,3.67
2022-09-26T17:13:43.746Z,1.80
2022-09-26T17:16:10.473Z,2.40
2022-09-26T17:18:37.122Z,2.63
2022-09-26T17:21:03.545Z,4.10
2022-09-26T17:23:40.952Z,2.78
2022-09-26T17:26:11.036Z,3.13
2022-09-26T17:28:39.683Z,4.07
2022-09-26T17:31:07.627Z,6.30
2022-09-26T17:33:36.588Z,6.63
2022-09-26T17:36:03.211Z,6.32
2022-09-26T17:38:30.170Z,5.88
2022-09-26T17:40:56.617Z,7.53
2022-09-26T17:43:23.118Z,5.35
2022-09-26T17:45:51.377Z,5.95
2022-09-26T17:48:25.346Z,11.23
2022-09-26T17:50:54.018Z,11.45
2022-09-26T17:53:20.923Z,8.10
2022-09-26T17:55:51.895Z,8.55
2022-09-26T17:58:18.830Z,10.48
2022-09-26T18:00:47.616Z,9.75
2022-09-26T18:03:20.233Z,12.73
2022-09-26T18:08:17.552Z,12.73
2022-09-26T18:10:50.139Z,11.35
2022-09-26T18:13:20.177Z,15.85
2022-09-26T18:15:46.552Z,10.73
2022-09-26T18:18:16.019Z,19.38
2022-09-26T18:20:43.109Z,14.82
2022-09-26T18:23:13.646Z,11.43
2022-09-26T18:25:40.048Z,15.00
2022-09-26T18:28:08.006Z,22.88
2022-09-26T18:30:34.422Z,17.58
2022-09-26T18:33:00.768Z,17.80
2022-09-26T18:35:27.704Z,21.08
2022-09-26T18:37:58.686Z,20.08
2022-09-26T18:40:26.369Z,10.93
2022-09-26T18:42:54.732Z,15.73
2022-09-26T18:45:24.753Z,22.27
2022-09-26T18:47:51.173Z,12.57
2022-09-26T18:50:19.571Z,17.10
2022-09-26T18:52:46.121Z,16.65
2022-09-26T18:55:36.201Z,15.50
2022-09-26T18:58:21.357Z,12.05
2022-09-26T19:00:48.530Z,11.73
2022-09-26T19:03:18.289Z,14.73
2022-09-26T19:05:44.624Z,14.02
2022-09-26T19:08:22.693Z,19.13
2022-09-26T19:10:49.106Z,15.00
2022-09-26T19:13:15.467Z,15.68
2022-09-26T19:15:41.866Z,15.05
2022-09-26T19:18:09.806Z,17.23
2022-09-26T19:20:36.314Z,17.73
2022-09-26T19:23:02.657Z,19.60
2022-09-26T19:25:30.745Z,16.67
2022-09-26T19:27:57.157Z,19.23
2022-09-26T19:30:23.910Z,17.17
2022-09-26T19:32:51.718Z,17.70
2022-09-26T19:35:24.068Z,14.68
2022-09-26T19:37:50.475Z,18.05
2022-09-26T19:40:18.279Z,16.75
2022-09-26T19:42:45.048Z,17.05
2022-09-26T19:45:12.390Z,16.55
2022-09-26T19:47:41.268Z,17.50
2022-09-26T19:50:12.793Z,11.38
2022-09-26T19:52:39.225Z,23.23
2022-09-26T19:55:11.489Z,20.05
2022-09-26T19:57:39.080Z,20.30
2022-09-26T20:00:05.736Z,19.83
2022-09-26T20:02:32.319Z,20.02
2022-09-26T20:04:58.832Z,15.95
2022-09-26T20:07:26.269Z,15.63
2022-09-26T20:09:52.697Z,19.77
2022-09-26T20:12:19.047Z,18.60
2022-09-26T20:14:45.462Z,21.45
2022-09-26T20:17:20.949Z,16.48
2022-09-26T20:19:48.444Z,18.55
2022-09-26T20:22:15.785Z,21.25
2022-09-26T20:24:43.733Z,20.10
2022-09-26T20:27:14.852Z,19.70
2022-09-26T20:29:59.904Z,19.90
2022-09-26T20:32:26.478Z,14.25
2022-09-26T20:34:52.937Z,23.25
2022-09-26T20:37:23.346Z,17.67
2022-09-26T20:39:50.125Z,17.38
2022-09-26T20:42:17.640Z,12.00
2022-09-26T20:44:45.785Z,15.73
2022-09-26T20:47:16.098Z,11.10
2022-09-26T20:49:44.848Z,12.70
2022-09-26T20:52:29.785Z,10.85
2022-09-26T20:54:56.823Z,10.20
2022-09-26T20:57:23.976Z,15.00
2022-09-26T20:59:50.870Z,6.63
2022-09-26T21:02:23.424Z,13.52
2022-09-26T21:07:16.299Z,7.55
2022-09-26T21:09:42.660Z,10.68
2022-09-26T21:12:12.564Z,9.52
2022-09-26T21:14:38.932Z,7.38
2022-09-26T21:17:05.587Z,9.68
2022-09-26T21:19:32.692Z,4.63
2022-09-26T21:22:11.788Z,5.25
2022-09-26T21:24:48.962Z,4.20
2022-09-26T21:27:15.350Z,6.50
2022-09-26T21:29:42.954Z,6.07
2022-09-26T21:32:13.269Z,7.32
2022-09-26T21:34:40.502Z,3.88
2022-09-26T21:37:07.569Z,7.65
2022-09-26T21:39:34.033Z,7.35
2022-09-26T21:42:02.854Z,7.40
2022-09-26T21:44:32.095Z,9.93
2022-09-26T21:46:59.613Z,8.57
2022-09-26T21:49:26.056Z,6.63
2022-09-26T21:51:55.164Z,6.80
2022-09-26T21:54:24.894Z,8.30
2022-09-26T21:56:54.746Z,8.07
2022-09-26T21:59:22.100Z,5.85
2022-09-26T22:01:48.541Z,10.18
2022-09-26T22:04:14.961Z,7.13
2022-09-26T22:06:41.744Z,4.60
2022-09-26T22:09:08.458Z,3.83
2022-09-26T22:11:35.533Z,7.10
2022-09-26T22:14:02.089Z,5.10
2022-09-26T22:16:28.583Z,6.05
2022-09-26T22:18:55.025Z,5.63
2022-09-26T22:21:21.461Z,9.32
2022-09-26T22:23:51.317Z,6.28
2022-09-26T22:26:18.502Z,5.63
2022-09-26T22:28:45.131Z,5.97
2022-09-26T22:31:12.328Z,5.95
2022-09-26T22:33:38.854Z,8.32
2022-09-26T22:36:05.329Z,6.53
2022-09-26T22:38:32.701Z,7.20
2022-09-26T22:41:00.083Z,8.88
2022-09-26T22:43:27.095Z,6.13
2022-09-26T22:45:53.785Z,4.80
2022-09-26T22:48:20.262Z,9.00
2022-09-26T22:50:46.673Z,12.38
2022-09-26T22:53:13.092Z,7.18
2022-09-26T22:55:39.549Z,5.47
2022-09-26T22:58:05.963Z,5.18
2022-09-26T23:00:32.476Z,11.52
2022-09-26T23:02:58.893Z,7.63
2022-09-26T23:05:25.322Z,10.95
2022-09-26T23:07:54.811Z,6.55
2022-09-26T23:10:22.181Z,7.13
2022-09-26T23:12:49.767Z,8.02
2022-09-26T23:15:18.205Z,5.80
2022-09-26T23:17:44.710Z,9.00
2022-09-26T23:20:11.123Z,9.77
2022-09-26T23:22:39.644Z,8.23
2022-09-26T23:25:06.729Z,8.00
2022-09-26T23:27:33.171Z,5.88
2022-09-26T23:29:59.586Z,4.47
2022-09-26T23:32:25.923Z,10.60
2022-09-26T23:34:52.453Z,8.73
2022-09-26T23:37:18.885Z,3.92
2022-09-26T23:39:45.566Z,9.02
2022-09-26T23:42:12.102Z,9.20
2022-09-26T23:44:38.529Z,7.75
2022-09-26T23:47:04.940Z,8.05
2022-09-26T23:49:31.401Z,13.85
2022-09-26T23:51:58.199Z,8.65
2022-09-26T23:54:24.636Z,6.68
2022-09-26T23:56:51.077Z,9.48
2022-09-26T23:59:17.498Z,8.32
